Time;durP1;ratioP1;P1;durP2;ratioP2;P2;SDS_P1;SDS_P2;PMS_P1;PMS_P2;Temp;Humidity;BMP_temperature;BMP_pressure;BME280_temperature;BME280_humidity;BME280_pressure;Samples;Min_cycle;Max_cycle;Signal;HPM_P1;HPM_P2
2021/10/29 00:01:42;;;;;;;1999.90;999.90;;;;;;;4.04;55.78;101038.88;5017056;27;98146;-73
2021/10/29 00:04:11;;;;;;;1999.90;999.90;;;;;;;4.02;55.63;101036.13;5016835;27;98958;-72
2021/10/29 00:06:39;;;;;;;1999.90;999.90;;;;;;;3.99;55.88;101046.50;5014975;27;100606;-73
2021/10/29 00:09:07;;;;;;;1999.90;999.90;;;;;;;3.98;55.75;101031.56;5017984;27;97072;-73
2021/10/29 00:11:35;;;;;;;1999.90;999.90;;;;;;;3.96;55.84;101033.22;5017448;27;97033;-74
2021/10/29 00:14:02;;;;;;;1999.90;999.90;;;;;;;3.93;55.85;101038.28;5016161;27;98743;-74
2021/10/29 00:16:30;;;;;;;1999.90;999.90;;;;;;;3.91;55.84;101034.72;5017831;27;97929;-74
2021/10/29 00:18:58;;;;;;;1999.90;999.90;;;;;;;3.91;55.70;101032.06;5017792;27;97744;-75
2021/10/29 00:21:27;;;;;;;1999.90;999.90;;;;;;;3.89;55.96;101028.47;5016809;27;97360;-74
2021/10/29 00:23:56;;;;;;;1999.90;999.90;;;;;;;3.87;56.01;101032.72;5018819;27;97980;-73
2021/10/29 00:26:24;;;;;;;1999.90;999.90;;;;;;;3.86;55.87;101022.13;5016524;27;98473;-74
2021/10/29 00:28:52;;;;;;;1999.90;999.90;;;;;;;3.84;56.02;101027.28;5021372;27;97868;-74
2021/10/29 00:31:19;;;;;;;1999.90;999.90;;;;;;;4.29;54.94;101031.38;5020740;27;97294;-73
2021/10/29 00:38:08;;;;;;;1999.90;999.90;;;;;;;3.71;55.76;101043.28;5020060;27;98051;-73
2021/10/29 00:40:38;;;;;;;1999.90;999.90;;;;;;;3.71;56.02;101022.25;5019561;27;98525;-74
2021/10/29 00:43:06;;;;;;;1999.90;999.90;;;;;;;3.70;55.97;101041.47;5017545;27;97147;-74
2021/10/29 00:45:34;;;;;;;1999.90;999.90;;;;;;;3.67;55.82;101037.78;5018087;27;100597;-73
2021/10/29 00:48:02;;;;;;;1999.90;999.90;;;;;;;3.64;55.72;101029.69;5020338;27;98858;-74
2021/10/29 00:50:30;;;;;;;1999.90;999.90;;;;;;;3.58;56.04;101025.00;5019842;27;97206;-73
2021/10/29 00:52:58;;;;;;;1999.90;999.90;;;;;;;3.55;55.92;101037.97;5001152;27;97025;-74
2021/10/29 00:55:27;;;;;;;1999.90;999.90;;;;;;;3.52;56.06;101043.09;5018783;27;98613;-74
2021/10/29 00:57:55;;;;;;;1999.90;999.90;;;;;;;3.49;55.87;101042.94;5018430;27;100588;-73
2021/10/29 01:00:23;;;;;;;1999.90;999.90;;;;;;;3.45;56.58;101043.59;5017982;27;98040;-72
2021/10/29 01:02:57;;;;;;;1999.90;999.90;;;;;;;3.44;56.54;101036.50;5010643;27;98050;-74
2021/10/29 01:05:25;;;;;;;1999.90;999.90;;;;;;;3.42;56.38;101032.91;5016419;27;98103;-73
2021/10/29 01:07:53;;;;;;;1999.90;999.90;;;;;;;3.39;55.99;101038.00;5018037;27;98818;-73
2021/10/29 01:10:21;;;;;;;1999.90;999.90;;;;;;;3.36;56.30;101032.59;5019898;27;97787;-73
2021/10/29 01:12:50;;;;;;;1999.90;999.90;;;;;;;3.33;55.79;101021.88;5017687;27;97439;-74
2021/10/29 01:15:18;;;;;;;1999.90;999.90;;;;;;;3.30;56.49;101032.25;5035117;27;99221;-74
2021/10/29 01:17:45;;;;;;;1999.90;999.90;;;;;;;3.26;56.58;101032.88;5017817;27;100721;-73
2021/10/29 01:20:13;;;;;;;1999.90;999.90;;;;;;;3.27;56.10;101021.56;5019264;27;97478;-75
2021/10/29 01:22:42;;;;;;;1999.90;999.90;;;;;;;3.23;56.11;101032.72;5017854;27;97840;-74
2021/10/29 01:25:12;;;;;;;1999.90;999.90;;;;;;;3.22;55.74;101028.31;5015751;27;100243;-74
2021/10/29 01:27:40;;;;;;;1999.90;999.90;;;;;;;3.19;56.46;101030.75;5018445;27;97604;-75
2021/10/29 01:30:09;;;;;;;1999.90;999.90;;;;;;;3.16;55.95;101025.34;5019208;27;97183;-76
2021/10/29 01:32:38;;;;;;;1999.90;999.90;;;;;;;3.14;55.82;101019.09;5018591;27;97045;-75
2021/10/29 01:35:06;;;;;;;1999.90;999.90;;;;;;;3.12;56.38;101020.72;5015147;27;100798;-76
2021/10/29 01:37:37;;;;;;;1999.90;999.90;;;;;;;3.08;56.02;101024.00;5017365;27;100823;-74
2021/10/29 01:40:09;;;;;;;1999.90;999.90;;;;;;;3.07;56.70;101030.09;5016846;27;97307;-76
2021/10/29 01:42:37;;;;;;;1999.90;999.90;;;;;;;3.04;56.23;101032.53;5018764;27;97028;-75
2021/10/29 01:45:06;;;;;;;1999.90;999.90;;;;;;;3.01;56.64;101021.84;5017607;27;99031;-76
2021/10/29 01:47:34;;;;;;;1999.90;999.90;;;;;;;2.99;56.36;101026.13;5019346;27;97152;-75
2021/10/29 01:50:03;;;;;;;1999.90;999.90;;;;;;;2.95;56.06;101017.16;5015958;27;96917;-75
2021/10/29 01:52:30;;;;;;;1999.90;999.90;;;;;;;2.93;56.38;101023.19;5016846;27;97032;-75
2021/10/29 01:54:58;;;;;;;1999.90;999.90;;;;;;;2.90;56.11;101009.84;5015878;27;99919;-75
2021/10/29 01:57:27;;;;;;;1999.90;999.90;;;;;;;2.87;56.49;101007.06;5016128;27;97701;-75
2021/10/29 01:59:55;;;;;;;1999.90;999.90;;;;;;;2.85;56.45;101003.44;5018914;27;98925;-74
2021/10/29 02:02:22;;;;;;;1999.90;999.90;;;;;;;2.84;56.66;100999.00;5018498;27;97498;-75
2021/10/29 02:04:50;;;;;;;1999.90;999.90;;;;;;;2.81;56.12;100996.19;5015859;27;99370;-74
2021/10/29 02:07:18;;;;;;;1999.90;999.90;;;;;;;2.78;56.56;101009.19;5016416;27;100639;-74
2021/10/29 02:09:46;;;;;;;1999.90;999.90;;;;;;;2.72;56.48;100998.31;5016944;27;97053;-73
2021/10/29 02:12:13;;;;;;;1999.90;999.90;;;;;;;2.69;56.35;101001.66;5017053;27;98554;-72
2021/10/29 02:14:43;;;;;;;1999.90;999.90;;;;;;;2.65;56.46;100997.09;5017153;27;96893;-74
2021/10/29 02:17:11;;;;;;;1999.90;999.90;;;;;;;2.62;56.12;100989.00;5014483;27;99601;-75
2021/10/29 02:19:38;;;;;;;1999.90;999.90;;;;;;;2.61;56.29;100996.81;5016836;27;97279;-73
2021/10/29 02:22:06;;;;;;;1999.90;999.90;;;;;;;2.58;56.95;100997.56;5018216;27;98984;-74
2021/10/29 02:24:35;;;;;;;1999.90;999.90;;;;;;;2.56;57.03;101004.44;5008780;27;101107;-74
2021/10/29 02:27:03;;;;;;;1999.90;999.90;;;;;;;2.53;56.77;101006.88;5015604;27;100550;-74
2021/10/29 02:29:31;;;;;;;1999.90;999.90;;;;;;;2.51;56.66;100998.00;5017787;27;97015;-75
2021/10/29 02:32:00;;;;;;;1999.90;999.90;;;;;;;2.50;56.90;101004.09;5018443;27;97676;-74
2021/10/29 02:34:28;;;;;;;1999.90;999.90;;;;;;;2.48;56.54;100999.56;5016632;27;98496;-76
2021/10/29 02:36:56;;;;;;;1999.90;999.90;;;;;;;2.46;56.49;101003.81;5016998;27;97147;-74
2021/10/29 02:39:24;;;;;;;1999.90;999.90;;;;;;;2.44;57.21;100997.59;5015429;27;98091;-74
2021/10/29 02:41:51;;;;;;;1999.90;999.90;;;;;;;2.42;57.00;100996.59;5015383;27;97031;-74
2021/10/29 02:44:19;;;;;;;1999.90;999.90;;;;;;;2.41;56.55;100998.31;5016004;27;97497;-74
2021/10/29 02:46:47;;;;;;;1999.90;999.90;;;;;;;2.40;56.46;100998.25;5016580;27;99004;-73
2021/10/29 02:49:16;;;;;;;1999.90;999.90;;;;;;;2.38;56.99;100997.25;5015998;27;97891;-74
2021/10/29 02:51:43;;;;;;;1999.90;999.90;;;;;;;2.37;56.67;100996.34;5018893;27;97618;-73
2021/10/29 02:54:11;;;;;;;1999.90;999.90;;;;;;;2.37;57.10;100998.03;5017927;27;100530;-74
2021/10/29 02:56:39;;;;;;;1999.90;999.90;;;;;;;2.36;56.67;100991.00;5015378;27;98319;-73
2021/10/29 02:59:06;;;;;;;1999.90;999.90;;;;;;;2.36;57.02;100991.00;5015345;27;97911;-74
2021/10/29 03:01:34;;;;;;;1999.90;999.90;;;;;;;2.34;56.97;100995.25;5018827;27;97379;-74
2021/10/29 03:04:02;;;;;;;1999.90;999.90;;;;;;;2.32;56.66;100989.91;5013404;27;99746;-74
2021/10/29 03:06:31;;;;;;;1999.90;999.90;;;;;;;2.31;56.49;100982.84;5014547;27;97587;-75
2021/10/29 03:08:59;;;;;;;1999.90;999.90;;;;;;;2.29;56.82;100979.25;5012543;27;97225;-74
2021/10/29 03:11:27;;;;;;;1999.90;999.90;;;;;;;2.29;57.03;100983.59;5015021;27;97593;-72
2021/10/29 03:13:55;;;;;;;1999.90;999.90;;;;;;;2.29;57.23;100978.34;5017405;27;97926;-73
2021/10/29 03:16:22;;;;;;;1999.90;999.90;;;;;;;2.27;56.96;100994.00;5016166;27;97986;-75
2021/10/29 03:18:50;;;;;;;1999.90;999.90;;;;;;;2.27;57.08;100983.50;5017879;27;97379;-73
2021/10/29 03:21:18;;;;;;;1999.90;999.90;;;;;;;2.27;57.27;100985.22;5015979;27;97293;-73
2021/10/29 03:23:47;;;;;;;1999.90;999.90;;;;;;;2.27;57.12;100990.47;5017473;27;97109;-72
2021/10/29 03:26:14;;;;;;;1999.90;999.90;;;;;;;2.25;56.64;100989.47;5014442;27;99328;-73
2021/10/29 03:28:42;;;;;;;1999.90;999.90;;;;;;;2.23;56.40;100993.72;5017552;27;98166;-74
2021/10/29 03:31:10;;;;;;;1999.90;999.90;;;;;;;2.23;56.42;100992.03;5016749;27;97607;-73
2021/10/29 03:33:39;;;;;;;1999.90;999.90;;;;;;;2.19;56.34;100996.19;5016485;27;97729;-73
2021/10/29 03:36:07;;;;;;;1999.90;999.90;;;;;;;2.20;57.15;100990.09;5015162;27;98683;-74
2021/10/29 03:38:49;;;;;;;1999.90;999.90;;;;;;;2.18;56.61;100994.38;5017337;27;97645;-73
2021/10/29 03:41:20;;;;;;;1999.90;999.90;;;;;;;2.17;57.01;100992.56;5016048;27;97055;-73
2021/10/29 03:43:52;;;;;;;1999.90;999.90;;;;;;;2.14;56.78;101000.25;5014400;27;100822;-73
2021/10/29 03:46:22;;;;;;;1999.90;999.90;;;;;;;2.12;57.02;101004.53;5014648;27;100761;-73
2021/10/29 03:51:40;;;;;;;1999.90;999.90;;;;;;;2.10;56.88;101000.00;5012381;27;97244;-74
2021/10/29 03:54:11;;;;;;;1999.90;999.90;;;;;;;2.09;56.89;101003.44;5016501;27;97549;-74
2021/10/29 03:56:45;;;;;;;1999.90;999.90;;;;;;;2.08;57.22;101002.50;4997957;28;100371;-73
2021/10/29 03:59:13;;;;;;;1999.90;999.90;;;;;;;2.57;56.12;101001.00;5015097;27;98112;-74
2021/10/29 04:01:41;;;;;;;1999.90;999.90;;;;;;;2.30;56.95;100999.44;5015937;27;98192;-73
2021/10/29 04:04:09;;;;;;;1999.90;999.90;;;;;;;2.21;57.08;100998.91;5015374;27;98353;-74
2021/10/29 04:06:38;;;;;;;1999.90;999.90;;;;;;;2.19;56.49;101011.94;5015237;27;97943;-73
2021/10/29 04:09:05;;;;;;;1999.90;999.90;;;;;;;2.15;57.15;101009.94;5016570;27;97144;-74
2021/10/29 04:11:37;;;;;;;1999.90;999.90;;;;;;;2.13;56.64;101008.94;5015597;27;97279;-74
2021/10/29 04:14:07;;;;;;;1999.90;999.90;;;;;;;2.11;57.36;101007.94;5016622;27;97620;-73
2021/10/29 04:16:36;;;;;;;1999.90;999.90;;;;;;;2.09;57.58;101003.44;5015110;27;97038;-75
2021/10/29 04:19:04;;;;;;;1999.90;999.90;;;;;;;2.07;57.06;101000.66;5013711;27;98190;-74
2021/10/29 04:21:32;;;;;;;1999.90;999.90;;;;;;;2.06;57.04;101004.13;5013718;27;97469;-73
2021/10/29 04:24:00;;;;;;;1999.90;999.90;;;;;;;2.04;57.26;101003.13;5013705;27;98223;-74
2021/10/29 04:26:28;;;;;;;1999.90;999.90;;;;;;;2.03;57.26;101000.41;5014015;27;99630;-73
2021/10/29 04:28:56;;;;;;;1999.90;999.90;;;;;;;2.00;56.86;100993.25;5014300;27;97238;-72
2021/10/29 04:31:29;;;;;;;1999.90;999.90;;;;;;;1.98;57.39;100994.88;5017376;27;97220;-72
2021/10/29 04:33:58;;;;;;;1999.90;999.90;;;;;;;1.96;57.29;100988.63;5014773;27;99392;-72
2021/10/29 04:36:26;;;;;;;1999.90;999.90;;;;;;;1.95;57.27;100976.34;5015926;27;97832;-70
2021/10/29 04:38:56;;;;;;;1999.90;999.90;;;;;;;1.93;57.08;100980.59;5014939;27;97909;-72
2021/10/29 04:41:24;;;;;;;1999.90;999.90;;;;;;;1.92;57.27;100988.38;4998009;27;98283;-72
2021/10/29 04:43:52;;;;;;;1999.90;999.90;;;;;;;1.88;56.95;100982.06;5016606;27;98125;-72
2021/10/29 04:46:19;;;;;;;1999.90;999.90;;;;;;;1.86;57.09;100985.41;5014007;27;97637;-72
2021/10/29 04:48:48;;;;;;;1999.90;999.90;;;;;;;1.84;57.33;100982.69;5015160;27;98959;-72
2021/10/29 04:51:16;;;;;;;1999.90;999.90;;;;;;;1.82;57.11;100989.56;5015696;27;97222;-73
2021/10/29 04:53:44;;;;;;;1999.90;999.90;;;;;;;1.82;56.91;100996.50;5014904;27;100392;-71
2021/10/29 04:56:11;;;;;;;1999.90;999.90;;;;;;;1.77;56.94;100993.63;5015620;27;97518;-72
2021/10/29 04:58:39;;;;;;;1999.90;999.90;;;;;;;1.75;57.43;100990.00;5014736;27;97027;-72
2021/10/29 05:01:07;;;;;;;1999.90;999.90;;;;;;;1.75;57.85;100989.09;5013607;27;98042;-73
2021/10/29 05:03:35;;;;;;;1999.90;999.90;;;;;;;1.72;57.28;100981.06;5011384;27;96899;-72
2021/10/29 05:06:04;;;;;;;1999.90;999.90;;;;;;;1.70;57.68;100990.56;5028952;27;100463;-72
2021/10/29 05:08:32;;;;;;;1999.90;999.90;;;;;;;1.68;57.55;100981.69;5018384;27;97239;-73
2021/10/29 05:11:00;;;;;;;1999.90;999.90;;;;;;;1.66;57.42;100975.44;5001704;27;96874;-73
2021/10/29 05:13:27;;;;;;;1999.90;999.90;;;;;;;1.65;57.16;100973.66;5019790;27;100769;-72
2021/10/29 05:15:55;;;;;;;1999.90;999.90;;;;;;;1.65;57.73;100985.00;5021684;27;98834;-72
2021/10/29 05:18:23;;;;;;;1999.90;999.90;;;;;;;1.64;57.89;100984.94;5023221;27;96990;-73
2021/10/29 05:20:51;;;;;;;1999.90;999.90;;;;;;;1.62;57.14;100982.22;5021842;27;97206;-72
2021/10/29 05:23:22;;;;;;;1999.90;999.90;;;;;;;1.61;57.33;100985.69;5020489;27;101604;-72
2021/10/29 05:25:50;;;;;;;1999.90;999.90;;;;;;;1.60;57.09;100988.22;5019784;27;99191;-73
2021/10/29 05:28:17;;;;;;;1999.90;999.90;;;;;;;1.59;57.60;100989.00;5019710;27;97685;-73
2021/10/29 05:30:45;;;;;;;1999.90;999.90;;;;;;;1.60;57.59;100988.22;5020639;27;97182;-75
2021/10/29 05:33:13;;;;;;;1999.90;999.90;;;;;;;1.60;57.65;100996.06;5020610;27;97996;-73
2021/10/29 05:35:41;;;;;;;1999.90;999.90;;;;;;;1.58;57.26;100990.72;5020331;27;96928;-72
2021/10/29 05:38:08;;;;;;;1999.90;999.90;;;;;;;1.58;57.52;100990.72;5019276;27;97984;-72
2021/10/29 05:40:37;;;;;;;1999.90;999.90;;;;;;;1.57;57.57;100986.28;5020011;27;97992;-72
2021/10/29 05:43:05;;;;;;;1999.90;999.90;;;;;;;1.54;57.52;100979.97;5018801;27;101037;-72
2021/10/29 05:45:33;;;;;;;1999.90;999.90;;;;;;;1.52;57.86;100974.63;5020643;27;98688;-72
2021/10/29 05:48:04;;;;;;;1999.90;999.90;;;;;;;1.50;58.04;100981.50;5020506;27;97354;-73
2021/10/29 05:50:32;;;;;;;1999.90;999.90;;;;;;;1.48;57.23;100975.25;5020407;27;97535;-74
2021/10/29 05:53:06;;;;;;;1999.90;999.90;;;;;;;1.48;57.44;100974.34;5019182;27;100672;-73
2021/10/29 05:55:34;;;;;;;1999.90;999.90;;;;;;;1.47;57.86;100978.66;5008805;27;100331;-70
2021/10/29 05:58:03;;;;;;;1999.90;999.90;;;;;;;1.46;57.81;100989.97;5017931;27;97899;-73
2021/10/29 06:00:31;;;;;;;1999.90;999.90;;;;;;;1.47;57.73;100985.66;5017542;27;97583;-72
2021/10/29 06:03:04;;;;;;;1999.90;999.90;;;;;;;1.45;57.47;100989.91;5019104;27;98892;-72
2021/10/29 06:05:32;;;;;;;1999.90;999.90;;;;;;;1.45;57.66;100992.53;5017949;27;97592;-73
2021/10/29 06:08:00;;;;;;;1999.90;999.90;;;;;;;1.43;57.49;100991.53;5018978;27;96897;-72
2021/10/29 06:10:28;;;;;;;1999.90;999.90;;;;;;;1.42;57.45;101000.19;5016779;27;97112;-73
2021/10/29 06:12:56;;;;;;;1999.90;999.90;;;;;;;1.42;57.73;100993.22;5018308;27;97631;-69
2021/10/29 06:15:25;;;;;;;1999.90;999.90;;;;;;;1.42;58.06;101002.81;5018048;27;97614;-73
2021/10/29 06:17:53;;;;;;;1999.90;999.90;;;;;;;1.40;57.33;101002.72;5019213;27;98102;-73
2021/10/29 06:20:21;;;;;;;1999.90;999.90;;;;;;;1.41;58.04;101001.00;5015463;27;98989;-74
2021/10/29 06:22:49;;;;;;;1999.90;999.90;;;;;;;1.41;57.38;101001.91;5017449;27;99229;-73
2021/10/29 06:25:19;;;;;;;1999.90;999.90;;;;;;;1.40;57.56;101010.56;5018876;27;97081;-73
2021/10/29 06:30:36;;;;;;;1999.90;999.90;;;;;;;1.38;57.92;101004.34;5019869;27;97062;-72
2021/10/29 06:33:05;;;;;;;1999.90;999.90;;;;;;;1.40;57.55;101010.56;5018643;27;98885;-73
2021/10/29 06:35:34;;;;;;;1999.90;999.90;;;;;;;1.40;57.73;101004.44;5018358;27;97641;-73
2021/10/29 06:38:01;;;;;;;1999.90;999.90;;;;;;;1.41;58.09;101014.13;5015322;27;98900;-74
2021/10/29 06:40:31;;;;;;;1999.90;999.90;;;;;;;1.41;57.97;101020.28;5016791;27;98083;-73
2021/10/29 06:43:06;;;;;;;1999.90;999.90;;;;;;;1.42;57.62;101024.69;5018828;27;98774;-73
2021/10/29 06:45:58;;;;;;;1999.90;999.90;;;;;;;1.42;57.77;101014.19;4998943;27;99555;-73
2021/10/29 06:48:33;;;;;;;1999.90;999.90;;;;;;;1.44;57.59;101023.06;5014372;27;97092;-72
2021/10/29 06:59:32;;;;;;;1999.90;999.90;;;;;;;1.53;57.33;101013.13;5015553;27;97174;-76
2021/10/29 07:02:13;;;;;;;1999.90;999.90;;;;;;;1.56;57.54;101015.06;5014852;27;97951;-75
2021/10/29 07:05:07;;;;;;;1999.90;999.90;;;;;;;1.57;57.51;101011.59;4993879;28;100253;-73
2021/10/29 07:41:08;;;;;;;1999.90;999.90;;;;;;;1.96;57.67;101012.25;4954454;28;98092;-75
2021/10/29 07:43:39;;;;;;;1999.90;999.90;;;;;;;2.02;57.88;101006.47;4956442;28;97714;-75
2021/10/29 07:46:07;;;;;;;1999.90;999.90;;;;;;;2.07;56.97;101005.03;4983002;27;97031;-75
2021/10/29 07:48:35;;;;;;;1999.90;999.90;;;;;;;2.12;57.40;101006.25;5014266;27;99570;-75
2021/10/29 07:51:06;;;;;;;1999.90;999.90;;;;;;;2.16;57.53;101000.38;5015192;27;101672;-74
2021/10/29 07:53:35;;;;;;;1999.90;999.90;;;;;;;2.18;57.29;100994.38;4995107;27;98685;-75
2021/10/29 07:56:05;;;;;;;1999.90;999.90;;;;;;;2.25;57.22;101007.84;5013577;27;97146;-75
2021/10/29 07:58:35;;;;;;;1999.90;999.90;;;;;;;2.31;57.52;101000.34;5014079;27;101766;-75
2021/10/29 08:01:04;;;;;;;1999.90;999.90;;;;;;;2.39;57.83;100999.03;5016347;27;97913;-75
2021/10/29 08:03:32;;;;;;;1999.90;999.90;;;;;;;2.43;57.00;100996.69;5016238;27;97440;-73
2021/10/29 08:05:59;;;;;;;1999.90;999.90;;;;;;;2.49;57.11;101006.63;5016631;27;97106;-75
2021/10/29 08:08:29;;;;;;;1999.90;999.90;;;;;;;2.56;57.65;101003.53;5015519;27;100187;-73
2021/10/29 08:10:57;;;;;;;1999.90;999.90;;;;;;;2.60;56.68;101005.53;4984559;27;99173;-76
2021/10/29 08:13:25;;;;;;;1999.90;999.90;;;;;;;2.66;57.57;101006.75;5017174;27;98741;-76
2021/10/29 08:15:58;;;;;;;1999.90;999.90;;;;;;;2.70;57.38;101003.50;5014519;27;96946;-76
2021/10/29 08:18:26;;;;;;;1999.90;999.90;;;;;;;2.76;56.82;101003.84;5014993;27;99405;-75
2021/10/29 08:20:55;;;;;;;1999.90;999.90;;;;;;;2.80;57.43;100999.66;5014418;27;98080;-76
2021/10/29 08:23:24;;;;;;;1999.90;999.90;;;;;;;2.85;57.68;101000.81;5013839;27;97366;-76
2021/10/29 08:25:53;;;;;;;1999.90;999.90;;;;;;;2.89;57.63;101001.06;5014763;27;97464;-76
2021/10/29 08:28:20;;;;;;;1999.90;999.90;;;;;;;2.95;56.76;101000.47;5013176;27;99487;-76
2021/10/29 08:30:51;;;;;;;1999.90;999.90;;;;;;;3.00;57.34;100994.66;5014862;27;100860;-75
2021/10/29 08:33:20;;;;;;;1999.90;999.90;;;;;;;3.04;57.02;100994.00;5016238;27;97132;-75
2021/10/29 08:35:48;;;;;;;1999.90;999.90;;;;;;;3.10;56.96;100991.72;4996251;28;97198;-76
2021/10/29 08:38:17;;;;;;;1999.90;999.90;;;;;;;3.16;57.27;100989.44;5013572;27;98776;-75
2021/10/29 08:40:45;;;;;;;1999.90;999.90;;;;;;;3.23;57.40;100990.66;5015108;27;98020;-75
2021/10/29 08:43:14;;;;;;;1999.90;999.90;;;;;;;3.29;57.28;100991.00;5017937;27;97240;-76
2021/10/29 08:45:43;;;;;;;1999.90;999.90;;;;;;;3.32;57.01;100980.63;5018262;27;97487;-75
2021/10/29 08:48:10;;;;;;;1999.90;999.90;;;;;;;3.38;56.82;100983.59;5016761;27;99256;-74
2021/10/29 08:50:38;;;;;;;1999.90;999.90;;;;;;;3.46;57.09;100977.00;5019452;27;97849;-74
2021/10/29 08:53:06;;;;;;;1999.90;999.90;;;;;;;3.52;56.93;100972.06;5016228;27;98195;-74
2021/10/29 08:55:35;;;;;;;1999.90;999.90;;;;;;;3.62;56.81;100973.44;5018447;27;97893;-74
2021/10/29 08:58:06;;;;;;;1999.90;999.90;;;;;;;3.69;56.49;100970.34;5018060;27;97702;-70
2021/10/29 09:00:40;;;;;;;1999.90;999.90;;;;;;;3.75;56.64;100974.19;5019091;27;98327;-75
2021/10/29 09:03:20;;;;;;;1999.90;999.90;;;;;;;3.82;56.46;100968.44;5015728;27;97800;-74
2021/10/29 09:05:58;;;;;;;1999.90;999.90;;;;;;;3.91;56.50;100974.16;5013683;27;97754;-75
2021/10/29 09:08:42;;;;;;;1999.90;999.90;;;;;;;3.99;56.46;100982.41;5011885;27;99016;-77
2021/10/29 09:11:32;;;;;;;1999.90;999.90;;;;;;;4.06;56.26;100982.81;5033419;27;98586;-75
2021/10/29 09:17:11;;;;;;;1999.90;999.90;;;;;;;4.19;56.12;100977.34;5017181;27;97260;-75
2021/10/29 09:31:26;;;;;;;1999.90;999.90;;;;;;;4.50;55.83;100973.59;5010716;27;99382;-75
2021/10/29 09:33:59;;;;;;;1999.90;999.90;;;;;;;4.54;55.96;100976.41;5008656;27;97868;-73
2021/10/29 09:36:30;;;;;;;1999.90;999.90;;;;;;;4.59;55.76;100976.66;5008460;27;97669;-73
2021/10/29 09:39:00;;;;;;;1999.90;999.90;;;;;;;4.64;55.69;100969.88;4993885;27;97790;-74
2021/10/29 09:41:39;;;;;;;1999.90;999.90;;;;;;;4.68;55.63;100974.47;5013632;27;98934;-74
2021/10/29 09:44:11;;;;;;;1999.90;999.90;;;;;;;4.71;55.73;100969.31;4993850;28;99549;-74
2021/10/29 09:46:51;;;;;;;1999.90;999.90;;;;;;;4.75;55.70;100972.19;5013085;27;99106;-75
2021/10/29 09:49:28;;;;;;;1999.90;999.90;;;;;;;4.84;55.82;100971.72;5014665;27;97400;-75
2021/10/29 09:52:19;;;;;;;1999.90;999.90;;;;;;;4.90;55.78;100969.38;5012282;27;98126;-74
2021/10/29 09:54:52;;;;;;;1999.90;999.90;;;;;;;4.97;55.52;100987.28;5013098;27;99982;-74
2021/10/29 09:57:21;;;;;;;1999.90;999.90;;;;;;;5.01;55.45;100982.19;5010407;27;97340;-73
2021/10/29 09:59:50;;;;;;;1999.90;999.90;;;;;;;5.07;55.59;100981.63;5013244;27;98020;-74
2021/10/29 10:02:19;;;;;;;1999.90;999.90;;;;;;;5.12;55.74;100977.44;5008070;27;97295;-74
2021/10/29 10:04:51;;;;;;;1999.90;999.90;;;;;;;5.19;55.81;100979.56;5013264;27;99254;-75
2021/10/29 10:07:20;;;;;;;1999.90;999.90;;;;;;;5.28;55.48;100982.63;5016482;27;97920;-74
2021/10/29 10:09:48;;;;;;;1999.90;999.90;;;;;;;5.36;55.54;100980.34;5008975;27;96901;-75
2021/10/29 10:12:17;;;;;;;1999.90;999.90;;;;;;;5.44;55.41;100974.56;5017864;27;97697;-73
2021/10/29 10:14:45;;;;;;;1999.90;999.90;;;;;;;5.53;55.24;100974.06;5015571;27;99745;-74
2021/10/29 10:17:15;;;;;;;1999.90;999.90;;;;;;;5.61;55.20;100975.31;5008876;27;97494;-74
2021/10/29 10:19:42;;;;;;;1999.90;999.90;;;;;;;5.67;55.18;100970.28;5012447;27;97874;-74
2021/10/29 10:22:15;;;;;;;1999.90;999.90;;;;;;;5.74;54.85;100975.88;5012106;27;98871;-72
2021/10/29 10:24:44;;;;;;;1999.90;999.90;;;;;;;5.80;55.19;100967.34;5012088;27;100069;-74
2021/10/29 10:27:49;;;;;;;1999.90;999.90;;;;;;;5.83;55.18;100949.00;5013849;27;97517;-73
2021/10/29 10:30:43;;;;;;;1999.90;999.90;;;;;;;5.91;55.17;100959.03;5012433;27;97402;-73
2021/10/29 10:44:44;;;;;;;1999.90;999.90;;;;;;;6.29;54.57;100931.59;5007175;27;101036;-74
2021/10/29 10:47:16;;;;;;;1999.90;999.90;;;;;;;6.37;54.60;100934.56;5011286;27;98014;-75
2021/10/29 10:49:48;;;;;;;1999.90;999.90;;;;;;;6.45;54.27;100930.50;5014811;27;97328;-74
2021/10/29 10:52:20;;;;;;;1999.90;999.90;;;;;;;6.54;54.48;100930.84;5014995;27;97879;-75
2021/10/29 10:54:53;;;;;;;1999.90;999.90;;;;;;;6.62;54.69;100924.09;5015291;27;98070;-74
2021/10/29 10:57:30;;;;;;;1999.90;999.90;;;;;;;6.69;54.23;100918.25;5015645;27;98451;-74
2021/10/29 11:00:17;;;;;;;1999.90;999.90;;;;;;;6.76;54.49;100912.34;5016831;27;98181;-74
2021/10/29 11:11:15;;;;;;;1999.90;999.90;;;;;;;7.09;54.19;100889.81;4997955;28;97748;-75
2021/10/29 11:14:00;;;;;;;1999.90;999.90;;;;;;;7.17;54.11;100878.66;5017431;27;97839;-74
2021/10/29 11:16:34;;;;;;;1999.90;999.90;;;;;;;7.25;54.09;100871.00;5016076;27;99609;-75
2021/10/29 11:19:07;;;;;;;1999.90;999.90;;;;;;;7.34;53.63;100875.69;5027132;27;99217;-74
2021/10/29 11:21:37;;;;;;;1999.90;999.90;;;;;;;7.42;53.64;100875.16;5014303;27;97784;-74
2021/10/29 11:24:07;;;;;;;1999.90;999.90;;;;;;;7.49;53.68;100863.91;5015978;27;97449;-74
2021/10/29 11:26:40;;;;;;;1999.90;999.90;;;;;;;7.56;53.78;100860.66;5009895;27;99187;-75
2021/10/29 11:29:09;;;;;;;1999.90;999.90;;;;;;;7.65;53.42;100858.34;5007832;27;98169;-73
2021/10/29 11:31:41;;;;;;;1999.90;999.90;;;;;;;7.72;53.52;100844.44;5016171;27;97794;-74
2021/10/29 11:34:12;;;;;;;1999.90;999.90;;;;;;;7.83;53.19;100836.84;5016405;27;97172;-73
2021/10/29 11:36:42;;;;;;;1999.90;999.90;;;;;;;7.92;53.30;100839.78;5010365;27;99072;-73
2021/10/29 11:39:10;;;;;;;1999.90;999.90;;;;;;;7.99;52.99;100834.75;5013963;27;98092;-73
2021/10/29 11:41:41;;;;;;;1999.90;999.90;;;;;;;8.06;53.05;100826.13;4997400;28;99043;-73
2021/10/29 11:44:11;;;;;;;1999.90;999.90;;;;;;;8.16;53.01;100830.91;5008996;27;97272;-73
2021/10/29 11:46:40;;;;;;;1999.90;999.90;;;;;;;8.25;52.90;100827.63;5014927;27;98778;-72
2021/10/29 11:49:09;;;;;;;1999.90;999.90;;;;;;;8.33;52.88;100825.22;5015210;27;97977;-73
2021/10/29 11:51:39;;;;;;;1999.90;999.90;;;;;;;8.43;52.69;100821.97;5016312;27;97306;-76
2021/10/29 11:54:14;;;;;;;1999.90;999.90;;;;;;;8.54;52.58;100820.59;5002848;28;97647;-78
2021/10/29 11:56:48;;;;;;;1999.90;999.90;;;;;;;8.63;52.48;100815.53;5015777;27;99506;-75
2021/10/29 12:07:51;;;;;;;1999.90;999.90;;;;;;;8.98;52.11;100789.19;4956080;28;98012;-74
2021/10/29 12:10:22;;;;;;;1999.90;999.90;;;;;;;9.08;52.02;100790.31;4996313;27;97648;-74
2021/10/29 12:12:57;;;;;;;1999.90;999.90;;;;;;;9.17;51.92;100790.56;4996031;28;99282;-75
2021/10/29 12:15:26;;;;;;;1999.90;999.90;;;;;;;9.26;51.68;100784.59;5015437;27;97499;-74
2021/10/29 12:17:57;;;;;;;1999.90;999.90;;;;;;;9.34;51.49;100781.28;5015644;27;100002;-74
2021/10/29 12:20:29;;;;;;;1999.90;999.90;;;;;;;9.43;51.34;100775.31;5013870;27;97080;-74
2021/10/29 12:23:00;;;;;;;1999.90;999.90;;;;;;;9.49;51.22;100772.84;5016090;27;98279;-76
2021/10/29 12:25:34;;;;;;;1999.90;999.90;;;;;;;9.55;51.26;100778.31;5015043;27;96911;-74
2021/10/29 12:28:06;;;;;;;1999.90;999.90;;;;;;;9.60;51.20;100771.34;5030327;27;100519;-75
2021/10/29 12:30:37;;;;;;;1999.90;999.90;;;;;;;9.65;51.14;100767.03;5015864;27;99309;-74
2021/10/29 12:58:58;;;;;;;1999.90;999.90;;;;;;;10.18;49.86;100745.28;5010457;27;97839;-73
2021/10/29 13:01:31;;;;;;;1999.90;999.90;;;;;;;10.20;49.84;100738.22;5012775;27;97694;-73
2021/10/29 13:04:01;;;;;;;1999.90;999.90;;;;;;;10.21;49.81;100735.59;5013706;27;100508;-73
2021/10/29 13:06:34;;;;;;;1999.90;999.90;;;;;;;10.21;49.63;100738.25;5014983;27;97844;-72